sensor_id;sensor_type;location;lat;lon;timestamp;temperature;humidity
25937;DHT22;13733;51.178;4.450;2023-05-29T00:01:45;15.00;99.90
25937;DHT22;13733;51.178;4.450;2023-05-29T00:04:11;14.90;99.90
25937;DHT22;13733;51.178;4.450;2023-05-29T00:06:37;14.90;99.90
25937;DHT22;13733;51.178;4.450;2023-05-29T00:09:03;14.90;99.90
25937;DHT22;13733;51.178;4.450;2023-05-29T00:11:30;14.80;99.90
25937;DHT22;13733;51.178;4.450;2023-05-29T00:13:56;14.80;99.90
25937;DHT22;13733;51.178;4.450;2023-05-29T00:16:23;14.80;99.90
25937;DHT22;13733;51.178;4.450;2023-05-29T00:18:49;14.70;99.90
25937;DHT22;13733;51.178;4.450;2023-05-29T00:21:15;14.70;99.90
25937;DHT22;13733;51.178;4.450;2023-05-29T00:23:41;14.60;99.90
25937;DHT22;13733;51.178;4.450;2023-05-29T00:26:07;14.60;99.90
25937;DHT22;13733;51.178;4.450;2023-05-29T00:28:35;14.50;99.90
25937;DHT22;13733;51.178;4.450;2023-05-29T00:31:00;14.50;99.90
25937;DHT22;13733;51.178;4.450;2023-05-29T00:33:26;14.40;99.90
25937;DHT22;13733;51.178;4.450;2023-05-29T00:35:52;14.40;99.90
25937;DHT22;13733;51.178;4.450;2023-05-29T00:38:18;14.40;99.90
25937;DHT22;13733;51.178;4.450;2023-05-29T00:40:44;14.30;99.90
25937;DHT22;13733;51.178;4.450;2023-05-29T00:43:09;14.20;99.90
25937;DHT22;13733;51.178;4.450;2023-05-29T00:45:35;14.20;99.90
25937;DHT22;13733;51.178;4.450;2023-05-29T00:48:05;14.30;99.90
25937;DHT22;13733;51.178;4.450;2023-05-29T00:50:32;14.30;99.90
25937;DHT22;13733;51.178;4.450;2023-05-29T00:52:59;14.20;99.90
25937;DHT22;13733;51.178;4.450;2023-05-29T00:55:28;14.10;99.90
25937;DHT22;13733;51.178;4.450;2023-05-29T00:57:54;14.10;99.90
25937;DHT22;13733;51.178;4.450;2023-05-29T01:00:20;14.00;99.90
25937;DHT22;13733;51.178;4.450;2023-05-29T01:02:46;14.00;99.90
25937;DHT22;13733;51.178;4.450;2023-05-29T01:05:13;14.00;99.90
25937;DHT22;13733;51.178;4.450;2023-05-29T01:07:40;13.90;99.90
25937;DHT22;13733;51.178;4.450;2023-05-29T01:10:07;13.80;99.90
25937;DHT22;13733;51.178;4.450;2023-05-29T01:13:03;13.80;99.90
25937;DHT22;13733;51.178;4.450;2023-05-29T01:15:46;13.70;99.90
25937;DHT22;13733;51.178;4.450;2023-05-29T01:27:19;13.60;99.90
25937;DHT22;13733;51.178;4.450;2023-05-29T01:29:49;13.50;99.90
25937;DHT22;13733;51.178;4.450;2023-05-29T01:32:16;13.50;99.90
25937;DHT22;13733;51.178;4.450;2023-05-29T01:34:45;13.40;99.90
25937;DHT22;13733;51.178;4.450;2023-05-29T01:37:10;13.50;99.90
25937;DHT22;13733;51.178;4.450;2023-05-29T01:39:36;13.40;99.90
25937;DHT22;13733;51.178;4.450;2023-05-29T01:42:03;13.30;99.90
25937;DHT22;13733;51.178;4.450;2023-05-29T01:44:34;13.30;99.90
25937;DHT22;13733;51.178;4.450;2023-05-29T01:47:00;13.30;99.90
25937;DHT22;13733;51.178;4.450;2023-05-29T01:49:28;13.20;99.90
25937;DHT22;13733;51.178;4.450;2023-05-29T01:51:54;13.10;99.90
25937;DHT22;13733;51.178;4.450;2023-05-29T01:54:21;13.20;99.90
25937;DHT22;13733;51.178;4.450;2023-05-29T01:56:46;13.10;99.90
25937;DHT22;13733;51.178;4.450;2023-05-29T01:59:13;13.10;99.90
25937;DHT22;13733;51.178;4.450;2023-05-29T02:01:40;13.10;99.90
25937;DHT22;13733;51.178;4.450;2023-05-29T02:04:06;13.00;99.90
25937;DHT22;13733;51.178;4.450;2023-05-29T02:06:32;13.00;99.90
25937;DHT22;13733;51.178;4.450;2023-05-29T02:08:58;12.90;99.90
25937;DHT22;13733;51.178;4.450;2023-05-29T02:11:25;12.90;99.90
25937;DHT22;13733;51.178;4.450;2023-05-29T02:13:52;12.90;99.90
25937;DHT22;13733;51.178;4.450;2023-05-29T02:16:18;12.90;99.90
25937;DHT22;13733;51.178;4.450;2023-05-29T02:18:46;12.90;99.90
25937;DHT22;13733;51.178;4.450;2023-05-29T02:21:12;12.90;99.90
25937;DHT22;13733;51.178;4.450;2023-05-29T02:23:38;12.80;99.90
25937;DHT22;13733;51.178;4.450;2023-05-29T02:26:04;12.80;99.90
25937;DHT22;13733;51.178;4.450;2023-05-29T02:28:30;12.80;99.90
25937;DHT22;13733;51.178;4.450;2023-05-29T02:30:56;12.70;99.90
25937;DHT22;13733;51.178;4.450;2023-05-29T02:33:22;12.70;99.90
25937;DHT22;13733;51.178;4.450;2023-05-29T02:35:47;12.70;99.90
25937;DHT22;13733;51.178;4.450;2023-05-29T02:38:14;12.70;99.90
25937;DHT22;13733;51.178;4.450;2023-05-29T02:40:40;12.60;99.90
25937;DHT22;13733;51.178;4.450;2023-05-29T02:43:07;12.60;99.90
25937;DHT22;13733;51.178;4.450;2023-05-29T02:45:33;12.60;99.90
25937;DHT22;13733;51.178;4.450;2023-05-29T02:47:59;12.50;99.90
25937;DHT22;13733;51.178;4.450;2023-05-29T02:50:26;12.40;99.90
25937;DHT22;13733;51.178;4.450;2023-05-29T02:52:52;12.50;99.90
25937;DHT22;13733;51.178;4.450;2023-05-29T02:55:17;12.40;99.90
25937;DHT22;13733;51.178;4.450;2023-05-29T02:57:43;12.40;99.90
25937;DHT22;13733;51.178;4.450;2023-05-29T03:00:09;12.30;99.90
25937;DHT22;13733;51.178;4.450;2023-05-29T03:02:36;12.30;99.90
25937;DHT22;13733;51.178;4.450;2023-05-29T03:05:02;12.30;99.90
25937;DHT22;13733;51.178;4.450;2023-05-29T03:07:28;12.30;99.90
25937;DHT22;13733;51.178;4.450;2023-05-29T03:09:55;12.30;99.90
25937;DHT22;13733;51.178;4.450;2023-05-29T03:12:23;12.30;99.90
25937;DHT22;13733;51.178;4.450;2023-05-29T03:14:49;12.30;99.90
25937;DHT22;13733;51.178;4.450;2023-05-29T03:17:15;12.20;99.90
25937;DHT22;13733;51.178;4.450;2023-05-29T03:19:40;12.10;99.90
25937;DHT22;13733;51.178;4.450;2023-05-29T03:22:06;12.10;99.90
25937;DHT22;13733;51.178;4.450;2023-05-29T03:24:34;12.10;99.90
25937;DHT22;13733;51.178;4.450;2023-05-29T03:27:01;12.00;99.90
25937;DHT22;13733;51.178;4.450;2023-05-29T03:29:31;12.10;99.90
25937;DHT22;13733;51.178;4.450;2023-05-29T03:31:57;12.00;99.90
25937;DHT22;13733;51.178;4.450;2023-05-29T03:34:27;12.00;99.90
25937;DHT22;13733;51.178;4.450;2023-05-29T03:36:56;12.00;99.90
25937;DHT22;13733;51.178;4.450;2023-05-29T03:39:23;12.00;99.90
25937;DHT22;13733;51.178;4.450;2023-05-29T03:41:49;11.90;99.90
25937;DHT22;13733;51.178;4.450;2023-05-29T03:44:15;11.90;99.90
25937;DHT22;13733;51.178;4.450;2023-05-29T03:46:41;11.90;99.90
25937;DHT22;13733;51.178;4.450;2023-05-29T03:49:07;11.80;99.90
25937;DHT22;13733;51.178;4.450;2023-05-29T03:51:34;11.80;99.90
25937;DHT22;13733;51.178;4.450;2023-05-29T03:54:01;11.80;99.90
25937;DHT22;13733;51.178;4.450;2023-05-29T03:56:27;11.70;99.90
25937;DHT22;13733;51.178;4.450;2023-05-29T03:58:52;11.70;99.90
25937;DHT22;13733;51.178;4.450;2023-05-29T04:01:19;11.60;99.90
25937;DHT22;13733;51.178;4.450;2023-05-29T04:03:45;11.70;99.90
25937;DHT22;13733;51.178;4.450;2023-05-29T04:06:13;11.60;99.90
25937;DHT22;13733;51.178;4.450;2023-05-29T04:08:39;11.70;99.90
25937;DHT22;13733;51.178;4.450;2023-05-29T04:11:05;11.70;99.90
25937;DHT22;13733;51.178;4.450;2023-05-29T04:13:30;11.70;99.90
25937;DHT22;13733;51.178;4.450;2023-05-29T04:15:56;11.70;99.90
25937;DHT22;13733;51.178;4.450;2023-05-29T04:18:22;11.70;99.90
25937;DHT22;13733;51.178;4.450;2023-05-29T04:20:48;11.70;99.90
25937;DHT22;13733;51.178;4.450;2023-05-29T04:23:13;11.70;99.90
25937;DHT22;13733;51.178;4.450;2023-05-29T04:25:39;11.70;99.90
25937;DHT22;13733;51.178;4.450;2023-05-29T04:28:05;11.70;99.90
25937;DHT22;13733;51.178;4.450;2023-05-29T04:30:31;11.80;99.90
25937;DHT22;13733;51.178;4.450;2023-05-29T04:33:00;11.90;99.90
25937;DHT22;13733;51.178;4.450;2023-05-29T04:35:27;11.80;99.90
25937;DHT22;13733;51.178;4.450;2023-05-29T04:38:01;11.80;99.90
25937;DHT22;13733;51.178;4.450;2023-05-29T04:40:30;11.80;99.90
25937;DHT22;13733;51.178;4.450;2023-05-29T04:42:57;11.80;99.90
25937;DHT22;13733;51.178;4.450;2023-05-29T04:45:29;11.80;99.90
25937;DHT22;13733;51.178;4.450;2023-05-29T04:47:56;11.80;99.90
25937;DHT22;13733;51.178;4.450;2023-05-29T04:50:22;11.80;99.90
25937;DHT22;13733;51.178;4.450;2023-05-29T04:52:49;11.80;99.90
25937;DHT22;13733;51.178;4.450;2023-05-29T04:55:15;11.90;99.90
25937;DHT22;13733;51.178;4.450;2023-05-29T04:57:42;11.90;99.90
25937;DHT22;13733;51.178;4.450;2023-05-29T05:00:09;11.90;99.90
25937;DHT22;13733;51.178;4.450;2023-05-29T05:02:44;12.00;99.90
25937;DHT22;13733;51.178;4.450;2023-05-29T05:05:11;11.90;99.90
25937;DHT22;13733;51.178;4.450;2023-05-29T05:07:37;11.90;99.90
25937;DHT22;13733;51.178;4.450;2023-05-29T05:10:04;11.80;99.90
25937;DHT22;13733;51.178;4.450;2023-05-29T05:12:31;11.80;99.90
25937;DHT22;13733;51.178;4.450;2023-05-29T05:14:59;11.80;99.90
25937;DHT22;13733;51.178;4.450;2023-05-29T05:17:25;11.90;99.90
25937;DHT22;13733;51.178;4.450;2023-05-29T05:19:51;12.00;99.90
25937;DHT22;13733;51.178;4.450;2023-05-29T05:22:19;12.10;99.90
25937;DHT22;13733;51.178;4.450;2023-05-29T05:24:45;12.20;99.90
25937;DHT22;13733;51.178;4.450;2023-05-29T05:27:11;12.20;99.90
25937;DHT22;13733;51.178;4.450;2023-05-29T05:29:37;12.30;99.90
25937;DHT22;13733;51.178;4.450;2023-05-29T05:32:04;12.30;99.90
25937;DHT22;13733;51.178;4.450;2023-05-29T05:34:30;12.30;99.90
25937;DHT22;13733;51.178;4.450;2023-05-29T05:36:55;12.30;99.90
25937;DHT22;13733;51.178;4.450;2023-05-29T05:39:22;12.40;99.90
25937;DHT22;13733;51.178;4.450;2023-05-29T05:41:48;12.50;99.90
25937;DHT22;13733;51.178;4.450;2023-05-29T05:44:21;12.60;99.90
25937;DHT22;13733;51.178;4.450;2023-05-29T05:46:56;12.70;99.90
25937;DHT22;13733;51.178;4.450;2023-05-29T05:49:21;12.80;99.90
25937;DHT22;13733;51.178;4.450;2023-05-29T05:51:47;12.80;99.90
25937;DHT22;13733;51.178;4.450;2023-05-29T05:54:13;12.80;99.90
25937;DHT22;13733;51.178;4.450;2023-05-29T05:56:39;12.90;99.90
25937;DHT22;13733;51.178;4.450;2023-05-29T05:59:07;12.90;99.90
25937;DHT22;13733;51.178;4.450;2023-05-29T06:01:33;12.90;99.90
25937;DHT22;13733;51.178;4.450;2023-05-29T06:03:59;13.00;99.90
25937;DHT22;13733;51.178;4.450;2023-05-29T06:06:25;13.00;99.90
25937;DHT22;13733;51.178;4.450;2023-05-29T06:08:51;13.10;99.90
25937;DHT22;13733;51.178;4.450;2023-05-29T06:11:17;13.10;99.90
25937;DHT22;13733;51.178;4.450;2023-05-29T06:13:45;13.00;99.90
25937;DHT22;13733;51.178;4.450;2023-05-29T06:16:23;13.00;99.90
25937;DHT22;13733;51.178;4.450;2023-05-29T06:18:50;13.00;99.90
25937;DHT22;13733;51.178;4.450;2023-05-29T06:21:17;13.00;99.90
25937;DHT22;13733;51.178;4.450;2023-05-29T06:23:50;13.00;99.90
25937;DHT22;13733;51.178;4.450;2023-05-29T06:26:16;13.10;99.90
25937;DHT22;13733;51.178;4.450;2023-05-29T06:28:42;13.20;99.90
25937;DHT22;13733;51.178;4.450;2023-05-29T06:31:08;13.30;99.90
25937;DHT22;13733;51.178;4.450;2023-05-29T06:33:36;13.40;99.90
25937;DHT22;13733;51.178;4.450;2023-05-29T06:36:04;13.60;99.90
25937;DHT22;13733;51.178;4.450;2023-05-29T06:38:30;13.70;99.90
25937;DHT22;13733;51.178;4.450;2023-05-29T06:40:56;13.70;99.90
25937;DHT22;13733;51.178;4.450;2023-05-29T06:43:21;13.70;99.90
25937;DHT22;13733;51.178;4.450;2023-05-29T06:45:48;13.70;99.90
25937;DHT22;13733;51.178;4.450;2023-05-29T06:48:14;13.80;99.90
25937;DHT22;13733;51.178;4.450;2023-05-29T06:50:41;13.90;99.90
25937;DHT22;13733;51.178;4.450;2023-05-29T06:53:42;14.00;99.90
25937;DHT22;13733;51.178;4.450;2023-05-29T06:56:10;14.20;99.90
25937;DHT22;13733;51.178;4.450;2023-05-29T06:58:36;14.20;99.90
25937;DHT22;13733;51.178;4.450;2023-05-29T07:01:05;14.20;99.90
25937;DHT22;13733;51.178;4.450;2023-05-29T07:03:32;14.20;99.90
25937;DHT22;13733;51.178;4.450;2023-05-29T07:05:58;14.20;99.90
25937;DHT22;13733;51.178;4.450;2023-05-29T07:08:24;14.40;99.90
25937;DHT22;13733;51.178;4.450;2023-05-29T07:10:51;14.60;99.90
25937;DHT22;13733;51.178;4.450;2023-05-29T07:13:19;14.70;99.90
25937;DHT22;13733;51.178;4.450;2023-05-29T07:15:45;14.60;99.90
25937;DHT22;13733;51.178;4.450;2023-05-29T07:18:12;14.70;99.90
25937;DHT22;13733;51.178;4.450;2023-05-29T07:20:39;14.60;99.90
25937;DHT22;13733;51.178;4.450;2023-05-29T07:23:05;14.70;99.90
25937;DHT22;13733;51.178;4.450;2023-05-29T07:25:32;14.70;99.90
25937;DHT22;13733;51.178;4.450;2023-05-29T07:27:58;14.80;99.90
25937;DHT22;13733;51.178;4.450;2023-05-29T07:30:24;14.70;99.90
25937;DHT22;13733;51.178;4.450;2023-05-29T07:32:52;14.80;99.90
25937;DHT22;13733;51.178;4.450;2023-05-29T07:35:18;14.80;99.90
25937;DHT22;13733;51.178;4.450;2023-05-29T07:37:44;14.90;99.90
25937;DHT22;13733;51.178;4.450;2023-05-29T07:40:14;15.10;99.90
25937;DHT22;13733;51.178;4.450;2023-05-29T07:42:58;15.20;99.90
25937;DHT22;13733;51.178;4.450;2023-05-29T07:45:28;15.30;99.90
25937;DHT22;13733;51.178;4.450;2023-05-29T07:47:53;15.50;99.90
25937;DHT22;13733;51.178;4.450;2023-05-29T07:50:19;15.70;99.90
25937;DHT22;13733;51.178;4.450;2023-05-29T07:52:46;15.60;99.90
25937;DHT22;13733;51.178;4.450;2023-05-29T07:55:11;15.60;99.90
25937;DHT22;13733;51.178;4.450;2023-05-29T07:57:38;15.40;99.90
25937;DHT22;13733;51.178;4.450;2023-05-29T08:00:08;15.40;99.90
25937;DHT22;13733;51.178;4.450;2023-05-29T08:02:44;15.50;99.90
25937;DHT22;13733;51.178;4.450;2023-05-29T08:05:30;15.50;99.90
25937;DHT22;13733;51.178;4.450;2023-05-29T08:07:59;15.70;99.90
25937;DHT22;13733;51.178;4.450;2023-05-29T08:10:26;15.90;99.90
25937;DHT22;13733;51.178;4.450;2023-05-29T08:12:51;15.90;99.90
25937;DHT22;13733;51.178;4.450;2023-05-29T08:15:19;15.80;99.90
25937;DHT22;13733;51.178;4.450;2023-05-29T08:17:50;15.60;99.90
25937;DHT22;13733;51.178;4.450;2023-05-29T08:20:16;15.80;99.90
25937;DHT22;13733;51.178;4.450;2023-05-29T08:22:42;15.90;99.90
25937;DHT22;13733;51.178;4.450;2023-05-29T08:25:08;16.10;99.90
25937;DHT22;13733;51.178;4.450;2023-05-29T08:27:34;16.20;99.90
25937;DHT22;13733;51.178;4.450;2023-05-29T08:30:00;16.40;99.90
25937;DHT22;13733;51.178;4.450;2023-05-29T08:32:25;16.60;99.90
25937;DHT22;13733;51.178;4.450;2023-05-29T08:34:51;16.70;99.90
25937;DHT22;13733;51.178;4.450;2023-05-29T08:37:17;16.90;99.90
25937;DHT22;13733;51.178;4.450;2023-05-29T08:39:43;17.00;99.90
25937;DHT22;13733;51.178;4.450;2023-05-29T08:42:13;16.80;99.90
25937;DHT22;13733;51.178;4.450;2023-05-29T08:44:40;16.90;99.90
25937;DHT22;13733;51.178;4.450;2023-05-29T08:47:07;17.00;99.90
25937;DHT22;13733;51.178;4.450;2023-05-29T08:49:43;17.00;99.90
25937;DHT22;13733;51.178;4.450;2023-05-29T08:52:14;16.90;99.90
25937;DHT22;13733;51.178;4.450;2023-05-29T08:54:41;17.00;99.90
25937;DHT22;13733;51.178;4.450;2023-05-29T08:57:07;17.10;99.90
25937;DHT22;13733;51.178;4.450;2023-05-29T08:59:35;17.30;99.90
25937;DHT22;13733;51.178;4.450;2023-05-29T09:02:02;17.60;99.90
25937;DHT22;13733;51.178;4.450;2023-05-29T09:04:28;17.80;99.90
25937;DHT22;13733;51.178;4.450;2023-05-29T09:06:58;17.80;99.90
25937;DHT22;13733;51.178;4.450;2023-05-29T09:09:27;17.90;99.90
25937;DHT22;13733;51.178;4.450;2023-05-29T09:11:53;17.80;99.90
25937;DHT22;13733;51.178;4.450;2023-05-29T09:14:38;17.60;99.90
25937;DHT22;13733;51.178;4.450;2023-05-29T09:17:05;17.40;99.90
25937;DHT22;13733;51.178;4.450;2023-05-29T09:19:32;17.60;99.90
25937;DHT22;13733;51.178;4.450;2023-05-29T09:22:02;17.70;99.90
25937;DHT22;13733;51.178;4.450;2023-05-29T09:24:32;17.90;99.90
25937;DHT22;13733;51.178;4.450;2023-05-29T09:26:59;18.00;99.90
25937;DHT22;13733;51.178;4.450;2023-05-29T09:29:25;18.10;99.90
25937;DHT22;13733;51.178;4.450;2023-05-29T09:31:51;18.20;99.90
25937;DHT22;13733;51.178;4.450;2023-05-29T09:34:17;18.20;99.90
25937;DHT22;13733;51.178;4.450;2023-05-29T09:36:43;18.10;99.90
25937;DHT22;13733;51.178;4.450;2023-05-29T09:39:09;18.10;99.90
25937;DHT22;13733;51.178;4.450;2023-05-29T09:41:45;18.10;99.90
25937;DHT22;13733;51.178;4.450;2023-05-29T09:44:15;18.30;99.90
25937;DHT22;13733;51.178;4.450;2023-05-29T09:46:43;18.40;99.90
25937;DHT22;13733;51.178;4.450;2023-05-29T09:49:14;18.60;99.90
25937;DHT22;13733;51.178;4.450;2023-05-29T09:51:41;18.70;99.90
25937;DHT22;13733;51.178;4.450;2023-05-29T09:54:17;18.80;99.90
25937;DHT22;13733;51.178;4.450;2023-05-29T09:56:44;18.90;99.90
25937;DHT22;13733;51.178;4.450;2023-05-29T09:59:13;19.10;99.60
25937;DHT22;13733;51.178;4.450;2023-05-29T10:01:43;19.10;99.70
25937;DHT22;13733;51.178;4.450;2023-05-29T10:04:12;19.20;99.90
25937;DHT22;13733;51.178;4.450;2023-05-29T10:06:44;19.30;99.30
25937;DHT22;13733;51.178;4.450;2023-05-29T10:09:16;19.40;98.90
25937;DHT22;13733;51.178;4.450;2023-05-29T10:11:44;19.60;98.80
25937;DHT22;13733;51.178;4.450;2023-05-29T10:14:18;19.80;97.10
25937;DHT22;13733;51.178;4.450;2023-05-29T10:16:46;19.80;97.40
25937;DHT22;13733;51.178;4.450;2023-05-29T10:19:13;19.90;96.80
25937;DHT22;13733;51.178;4.450;2023-05-29T10:21:42;19.80;96.80
25937;DHT22;13733;51.178;4.450;2023-05-29T10:24:11;20.00;96.50
25937;DHT22;13733;51.178;4.450;2023-05-29T10:26:40;20.20;96.40
25937;DHT22;13733;51.178;4.450;2023-05-29T10:29:33;20.30;95.30
25937;DHT22;13733;51.178;4.450;2023-05-29T10:40:26;21.10;93.90
25937;DHT22;13733;51.178;4.450;2023-05-29T10:42:52;20.80;94.00
25937;DHT22;13733;51.178;4.450;2023-05-29T10:47:56;21.10;92.00
25937;DHT22;13733;51.178;4.450;2023-05-29T10:50:38;21.20;92.20
25937;DHT22;13733;51.178;4.450;2023-05-29T10:53:17;21.30;91.90
25937;DHT22;13733;51.178;4.450;2023-05-29T10:55:44;21.30;90.90
25937;DHT22;13733;51.178;4.450;2023-05-29T11:00:47;21.10;90.80
25937;DHT22;13733;51.178;4.450;2023-05-29T11:03:24;21.80;89.70
25937;DHT22;13733;51.178;4.450;2023-05-29T11:06:02;22.70;86.50
25937;DHT22;13733;51.178;4.450;2023-05-29T11:08:35;22.80;83.80
25937;DHT22;13733;51.178;4.450;2023-05-29T11:11:02;23.30;81.70
25937;DHT22;13733;51.178;4.450;2023-05-29T11:13:36;24.00;79.90
25937;DHT22;13733;51.178;4.450;2023-05-29T11:18:45;25.10;67.90
25937;DHT22;13733;51.178;4.450;2023-05-29T11:21:31;25.10;65.70
25937;DHT22;13733;51.178;4.450;2023-05-29T11:24:00;25.00;64.30
25937;DHT22;13733;51.178;4.450;2023-05-29T11:26:29;25.10;62.60
25937;DHT22;13733;51.178;4.450;2023-05-29T11:29:00;25.30;61.90
25937;DHT22;13733;51.178;4.450;2023-05-29T11:31:27;25.60;60.30
25937;DHT22;13733;51.178;4.450;2023-05-29T11:33:55;25.60;61.70
25937;DHT22;13733;51.178;4.450;2023-05-29T11:36:25;26.10;60.60
25937;DHT22;13733;51.178;4.450;2023-05-29T11:38:52;26.50;57.70
25937;DHT22;13733;51.178;4.450;2023-05-29T11:41:18;26.90;57.00
25937;DHT22;13733;51.178;4.450;2023-05-29T11:43:44;27.40;53.70
25937;DHT22;13733;51.178;4.450;2023-05-29T11:46:18;27.60;54.20
25937;DHT22;13733;51.178;4.450;2023-05-29T11:48:48;27.70;52.30
25937;DHT22;13733;51.178;4.450;2023-05-29T11:51:14;27.40;50.80
25937;DHT22;13733;51.178;4.450;2023-05-29T11:53:46;27.70;51.30
25937;DHT22;13733;51.178;4.450;2023-05-29T11:56:12;27.60;50.80
25937;DHT22;13733;51.178;4.450;2023-05-29T11:58:39;27.80;50.60
25937;DHT22;13733;51.178;4.450;2023-05-29T12:01:07;27.90;50.60
25937;DHT22;13733;51.178;4.450;2023-05-29T12:03:40;27.60;49.70
25937;DHT22;13733;51.178;4.450;2023-05-29T12:06:08;27.70;49.50
25937;DHT22;13733;51.178;4.450;2023-05-29T12:08:35;28.10;48.90
25937;DHT22;13733;51.178;4.450;2023-05-29T12:11:01;28.40;48.00
25937;DHT22;13733;51.178;4.450;2023-05-29T12:13:27;28.80;47.30
25937;DHT22;13733;51.178;4.450;2023-05-29T12:15:56;29.20;45.60
25937;DHT22;13733;51.178;4.450;2023-05-29T12:18:23;29.40;45.40
25937;DHT22;13733;51.178;4.450;2023-05-29T12:20:50;29.20;44.40
25937;DHT22;13733;51.178;4.450;2023-05-29T12:23:17;28.20;45.10
25937;DHT22;13733;51.178;4.450;2023-05-29T12:25:46;27.60;46.50
25937;DHT22;13733;51.178;4.450;2023-05-29T12:28:16;27.80;47.20
25937;DHT22;13733;51.178;4.450;2023-05-29T12:30:45;28.40;47.60
25937;DHT22;13733;51.178;4.450;2023-05-29T12:33:31;29.10;44.40
25937;DHT22;13733;51.178;4.450;2023-05-29T12:36:08;29.80;43.90
25937;DHT22;13733;51.178;4.450;2023-05-29T12:38:49;30.10;43.00
25937;DHT22;13733;51.178;4.450;2023-05-29T12:41:24;30.10;43.60
25937;DHT22;13733;51.178;4.450;2023-05-29T12:43:58;30.00;42.00
25937;DHT22;13733;51.178;4.450;2023-05-29T12:46:27;30.10;41.70
25937;DHT22;13733;51.178;4.450;2023-05-29T12:48:56;30.60;40.80
25937;DHT22;13733;51.178;4.450;2023-05-29T12:51:26;30.50;40.10
25937;DHT22;13733;51.178;4.450;2023-05-29T12:53:52;30.60;39.90
25937;DHT22;13733;51.178;4.450;2023-05-29T12:56:24;30.20;40.00
25937;DHT22;13733;51.178;4.450;2023-05-29T12:58:52;30.10;40.80
25937;DHT22;13733;51.178;4.450;2023-05-29T13:01:18;30.50;39.50
25937;DHT22;13733;51.178;4.450;2023-05-29T13:03:44;30.40;39.50
25937;DHT22;13733;51.178;4.450;2023-05-29T13:06:10;30.40;39.70
25937;DHT22;13733;51.178;4.450;2023-05-29T13:08:38;30.20;38.90
25937;DHT22;13733;51.178;4.450;2023-05-29T13:11:03;30.20;38.50
25937;DHT22;13733;51.178;4.450;2023-05-29T13:13:29;29.60;39.10
25937;DHT22;13733;51.178;4.450;2023-05-29T13:15:55;29.10;39.30
25937;DHT22;13733;51.178;4.450;2023-05-29T13:18:21;28.90;40.40
25937;DHT22;13733;51.178;4.450;2023-05-29T13:20:46;28.80;40.80
25937;DHT22;13733;51.178;4.450;2023-05-29T13:23:12;28.90;41.00
25937;DHT22;13733;51.178;4.450;2023-05-29T13:25:38;29.60;40.80
25937;DHT22;13733;51.178;4.450;2023-05-29T13:28:04;30.20;39.10
25937;DHT22;13733;51.178;4.450;2023-05-29T13:30:31;30.10;38.40
25937;DHT22;13733;51.178;4.450;2023-05-29T13:32:57;29.20;38.60
25937;DHT22;13733;51.178;4.450;2023-05-29T13:35:22;29.20;39.10
25937;DHT22;13733;51.178;4.450;2023-05-29T13:37:48;28.60;39.50
25937;DHT22;13733;51.178;4.450;2023-05-29T13:40:14;28.80;40.50
25937;DHT22;13733;51.178;4.450;2023-05-29T13:42:41;29.30;39.40
25937;DHT22;13733;51.178;4.450;2023-05-29T13:45:07;29.20;38.30
25937;DHT22;13733;51.178;4.450;2023-05-29T13:47:34;29.30;38.70
25937;DHT22;13733;51.178;4.450;2023-05-29T13:50:00;29.10;37.90
25937;DHT22;13733;51.178;4.450;2023-05-29T13:52:26;29.50;38.40
25937;DHT22;13733;51.178;4.450;2023-05-29T13:54:52;29.50;37.20
25937;DHT22;13733;51.178;4.450;2023-05-29T13:57:18;29.80;37.40
25937;DHT22;13733;51.178;4.450;2023-05-29T13:59:44;29.80;36.60
25937;DHT22;13733;51.178;4.450;2023-05-29T14:02:10;29.80;36.20
25937;DHT22;13733;51.178;4.450;2023-05-29T14:04:36;29.80;36.00
25937;DHT22;13733;51.178;4.450;2023-05-29T14:07:04;30.10;35.00
25937;DHT22;13733;51.178;4.450;2023-05-29T14:09:30;30.20;35.10
25937;DHT22;13733;51.178;4.450;2023-05-29T14:11:59;30.20;34.60
25937;DHT22;13733;51.178;4.450;2023-05-29T14:14:26;30.40;33.70
25937;DHT22;13733;51.178;4.450;2023-05-29T14:16:52;30.50;33.70
25937;DHT22;13733;51.178;4.450;2023-05-29T14:19:18;30.50;32.70
25937;DHT22;13733;51.178;4.450;2023-05-29T14:21:45;30.30;33.10
25937;DHT22;13733;51.178;4.450;2023-05-29T14:24:11;29.50;34.80
25937;DHT22;13733;51.178;4.450;2023-05-29T14:26:37;29.40;33.30
25937;DHT22;13733;51.178;4.450;2023-05-29T14:29:03;29.20;33.10
25937;DHT22;13733;51.178;4.450;2023-05-29T14:31:30;29.10;34.30
25937;DHT22;13733;51.178;4.450;2023-05-29T14:33:56;28.90;32.70
25937;DHT22;13733;51.178;4.450;2023-05-29T14:36:22;28.00;33.70
25937;DHT22;13733;51.178;4.450;2023-05-29T14:38:47;27.70;34.90
25937;DHT22;13733;51.178;4.450;2023-05-29T14:41:15;27.70;35.30
25937;DHT22;13733;51.178;4.450;2023-05-29T14:43:42;27.00;35.70
25937;DHT22;13733;51.178;4.450;2023-05-29T14:46:08;27.10;35.60
25937;DHT22;13733;51.178;4.450;2023-05-29T14:48:34;27.00;36.30
25937;DHT22;13733;51.178;4.450;2023-05-29T14:51:01;27.00;36.80
25937;DHT22;13733;51.178;4.450;2023-05-29T14:53:27;27.30;37.00
25937;DHT22;13733;51.178;4.450;2023-05-29T14:55:53;27.50;36.40
25937;DHT22;13733;51.178;4.450;2023-05-29T14:58:19;27.60;35.50
25937;DHT22;13733;51.178;4.450;2023-05-29T15:00:44;28.10;35.50
25937;DHT22;13733;51.178;4.450;2023-05-29T15:03:10;28.50;35.20
25937;DHT22;13733;51.178;4.450;2023-05-29T15:05:36;29.00;34.90
25937;DHT22;13733;51.178;4.450;2023-05-29T15:08:02;30.10;33.60
25937;DHT22;13733;51.178;4.450;2023-05-29T15:10:28;30.10;33.40
25937;DHT22;13733;51.178;4.450;2023-05-29T15:12:54;31.10;32.80
25937;DHT22;13733;51.178;4.450;2023-05-29T15:15:25;30.40;32.00
25937;DHT22;13733;51.178;4.450;2023-05-29T15:17:52;29.30;32.00
25937;DHT22;13733;51.178;4.450;2023-05-29T15:20:22;28.70;33.70
25937;DHT22;13733;51.178;4.450;2023-05-29T15:22:48;28.50;34.50
25937;DHT22;13733;51.178;4.450;2023-05-29T15:25:15;28.70;34.20
25937;DHT22;13733;51.178;4.450;2023-05-29T15:27:42;29.00;34.90
25937;DHT22;13733;51.178;4.450;2023-05-29T15:30:15;29.10;33.90
25937;DHT22;13733;51.178;4.450;2023-05-29T15:32:42;29.40;33.80
25937;DHT22;13733;51.178;4.450;2023-05-29T15:35:09;29.50;33.80
25937;DHT22;13733;51.178;4.450;2023-05-29T15:37:36;29.70;32.50
25937;DHT22;13733;51.178;4.450;2023-05-29T15:40:02;29.20;32.60
25937;DHT22;13733;51.178;4.450;2023-05-29T15:42:28;29.10;33.30
25937;DHT22;13733;51.178;4.450;2023-05-29T15:44:54;28.70;34.20
25937;DHT22;13733;51.178;4.450;2023-05-29T15:47:20;28.30;35.00
25937;DHT22;13733;51.178;4.450;2023-05-29T15:49:46;28.30;35.80
25937;DHT22;13733;51.178;4.450;2023-05-29T15:52:13;27.90;34.90
25937;DHT22;13733;51.178;4.450;2023-05-29T15:54:39;27.50;36.20
25937;DHT22;13733;51.178;4.450;2023-05-29T15:57:05;27.60;36.30
25937;DHT22;13733;51.178;4.450;2023-05-29T15:59:32;27.80;35.90